createdAt,value
2019-05-06T00:00:06.183Z,1019.36
2019-05-06T00:00:36.232Z,1019.36
2019-05-06T00:01:06.169Z,1019.38
2019-05-06T00:02:06.185Z,1019.37
2019-05-06T00:02:36.223Z,1019.36
2019-05-06T00:03:07.181Z,1019.37
2019-05-06T00:03:36.231Z,1019.36
2019-05-06T00:04:36.227Z,1019.39
2019-05-06T00:05:06.168Z,1019.37
2019-05-06T00:05:36.226Z,1019.38
2019-05-06T00:06:06.175Z,1019.39
2019-05-06T00:07:06.293Z,1019.37
2019-05-06T00:07:38.272Z,1019.38
2019-05-06T00:08:06.175Z,1019.40
2019-05-06T00:08:39.290Z,1019.38
2019-05-06T00:09:36.230Z,1019.37
2019-05-06T00:10:07.307Z,1019.39
2019-05-06T00:10:36.342Z,1019.37
2019-05-06T00:11:06.176Z,1019.38
2019-05-06T00:12:06.175Z,1019.39
2019-05-06T00:12:35.214Z,1019.42
2019-05-06T00:13:06.175Z,1019.40
2019-05-06T00:13:36.229Z,1019.42
2019-05-06T00:14:35.253Z,1019.41
2019-05-06T00:15:06.170Z,1019.42
2019-05-06T00:15:36.230Z,1019.39
2019-05-06T00:16:06.175Z,1019.41
2019-05-06T00:17:06.171Z,1019.38
2019-05-06T00:17:36.239Z,1019.40
2019-05-06T00:18:08.270Z,1019.40
2019-05-06T00:18:36.247Z,1019.41
2019-05-06T00:19:09.116Z,1019.41
2019-05-06T00:20:06.184Z,1019.40
2019-05-06T00:20:36.232Z,1019.38
2019-05-06T00:21:06.175Z,1019.38
2019-05-06T00:21:37.247Z,1019.40
2019-05-06T00:22:36.239Z,1019.37
2019-05-06T00:23:06.181Z,1019.42
2019-05-06T00:23:40.277Z,1019.39
2019-05-06T00:24:36.233Z,1019.39
2019-05-06T00:25:07.306Z,1019.38
2019-05-06T00:25:36.237Z,1019.42
2019-05-06T00:26:06.172Z,1019.40
2019-05-06T00:27:06.183Z,1019.42
2019-05-06T00:27:36.245Z,1019.41
2019-05-06T00:28:07.325Z,1019.45
2019-05-06T00:28:38.598Z,1019.44
2019-05-06T00:29:39.131Z,1019.45
2019-05-06T00:30:06.181Z,1019.43
2019-05-06T00:30:36.237Z,1019.43
2019-05-06T00:31:13.254Z,1019.40
2019-05-06T00:32:06.174Z,1019.41
2019-05-06T00:32:36.237Z,1019.40
2019-05-06T00:33:06.184Z,1019.45
2019-05-06T00:33:36.234Z,1019.43
2019-05-06T00:34:36.239Z,1019.44
2019-05-06T00:35:06.180Z,1019.44
2019-05-06T00:35:36.334Z,1019.44
2019-05-06T00:36:06.181Z,1019.43
2019-05-06T00:37:05.166Z,1019.43
2019-05-06T00:37:36.351Z,1019.46
2019-05-06T00:38:06.181Z,1019.46
2019-05-06T00:38:36.233Z,1019.47
2019-05-06T00:39:08.337Z,1019.46
2019-05-06T00:40:09.210Z,1019.47
2019-05-06T00:40:36.239Z,1019.46
2019-05-06T00:41:06.188Z,1019.46
2019-05-06T00:41:37.254Z,1019.42
2019-05-06T00:42:36.241Z,1019.42
2019-05-06T00:43:06.181Z,1019.41
2019-05-06T00:43:36.251Z,1019.44
2019-05-06T00:44:06.184Z,1019.44
2019-05-06T00:44:36.246Z,1019.45
2019-05-06T00:45:06.179Z,1019.45
2019-05-06T00:45:36.239Z,1019.44
2019-05-06T00:46:06.197Z,1019.48
2019-05-06T00:46:36.238Z,1019.46
2019-05-06T00:47:06.177Z,1019.48
2019-05-06T00:47:36.247Z,1019.48
2019-05-06T00:48:06.177Z,1019.51
2019-05-06T00:48:36.243Z,1019.49
2019-05-06T00:49:38.546Z,1019.51
2019-05-06T00:50:06.185Z,1019.47
2019-05-06T00:50:39.227Z,1019.47
2019-05-06T00:51:06.178Z,1019.49
2019-05-06T00:51:35.235Z,1019.49
2019-05-06T00:52:06.264Z,1019.49
2019-05-06T00:52:36.235Z,1019.47
2019-05-06T00:53:06.183Z,1019.50
2019-05-06T00:53:36.249Z,1019.47
2019-05-06T00:54:06.234Z,1019.48
2019-05-06T00:55:06.185Z,1019.50
2019-05-06T00:55:35.230Z,1019.49
2019-05-06T00:56:06.222Z,1019.49
2019-05-06T00:56:36.232Z,1019.46
2019-05-06T00:57:35.221Z,1019.47
2019-05-06T00:58:06.210Z,1019.46
2019-05-06T00:58:36.245Z,1019.48
2019-05-06T00:59:05.168Z,1019.48
2019-05-06T01:00:08.331Z,1019.49
2019-05-06T01:00:35.221Z,1019.50
2019-05-06T01:01:09.213Z,1019.46
2019-05-06T01:01:36.249Z,1019.48
2019-05-06T01:02:36.254Z,1019.48
2019-05-06T01:03:06.187Z,1019.47
2019-05-06T01:03:36.246Z,1019.49
2019-05-06T01:04:06.183Z,1019.50
2019-05-06T01:05:06.177Z,1019.46
2019-05-06T01:05:35.267Z,1019.49
2019-05-06T01:06:06.179Z,1019.49
2019-05-06T01:06:36.301Z,1019.50
2019-05-06T01:07:36.252Z,1019.48
2019-05-06T01:08:06.184Z,1019.49
2019-05-06T01:08:36.249Z,1019.48
2019-05-06T01:09:06.192Z,1019.47
2019-05-06T01:10:05.299Z,1019.47
2019-05-06T01:10:38.401Z,1019.48
2019-05-06T01:11:06.185Z,1019.43
2019-05-06T01:11:39.157Z,1019.44
2019-05-06T01:12:36.249Z,1019.44
2019-05-06T01:13:06.182Z,1019.44
2019-05-06T01:13:37.258Z,1019.46
2019-05-06T01:14:06.185Z,1019.46
2019-05-06T01:14:37.256Z,1019.47
2019-05-06T01:15:36.244Z,1019.47
2019-05-06T01:16:06.190Z,1019.46
2019-05-06T01:16:36.251Z,1019.45
2019-05-06T01:17:35.231Z,1019.48
2019-05-06T01:18:06.184Z,1019.46
2019-05-06T01:18:36.250Z,1019.49
2019-05-06T01:19:06.257Z,1019.49
2019-05-06T01:20:06.179Z,1019.50
2019-05-06T01:20:35.254Z,1019.49
2019-05-06T01:21:08.414Z,1019.52
2019-05-06T01:21:36.259Z,1019.49
2019-05-06T01:22:09.213Z,1019.54
2019-05-06T01:23:05.226Z,1019.52
2019-05-06T01:23:36.247Z,1019.53
2019-05-06T01:24:06.187Z,1019.54
2019-05-06T01:25:05.189Z,1019.55
2019-05-06T01:25:36.242Z,1019.54
2019-05-06T01:26:06.195Z,1019.55
2019-05-06T01:26:35.232Z,1019.51
2019-05-06T01:27:35.249Z,1019.51
2019-05-06T01:28:06.187Z,1019.51
2019-05-06T01:28:36.363Z,1019.51
2019-05-06T01:29:06.192Z,1019.51
2019-05-06T01:30:06.185Z,1019.52
2019-05-06T01:30:35.237Z,1019.52
2019-05-06T01:31:06.204Z,1019.51
2019-05-06T01:31:45.988Z,1019.53
2019-05-06T01:32:39.235Z,1019.53
2019-05-06T01:33:06.195Z,1019.51
2019-05-06T01:33:36.267Z,1019.54
2019-05-06T01:34:06.187Z,1019.52
2019-05-06T01:35:06.185Z,1019.54
2019-05-06T01:35:37.262Z,1019.56
2019-05-06T01:36:06.186Z,1019.53
2019-05-06T01:36:36.248Z,1019.55
2019-05-06T01:37:36.251Z,1019.54
2019-05-06T01:38:05.175Z,1019.55
2019-05-06T01:38:36.246Z,1019.54
2019-05-06T01:39:06.192Z,1019.57
2019-05-06T01:40:06.191Z,1019.55
2019-05-06T01:40:36.247Z,1019.57
2019-05-06T01:41:06.185Z,1019.57
2019-05-06T01:41:35.238Z,1019.60
2019-05-06T01:42:08.788Z,1019.56
2019-05-06T01:43:05.183Z,1019.59
2019-05-06T01:43:36.257Z,1019.61
2019-05-06T01:44:06.231Z,1019.61
2019-05-06T01:45:06.191Z,1019.60
2019-05-06T01:45:36.249Z,1019.64
2019-05-06T01:46:06.190Z,1019.63
2019-05-06T01:46:36.269Z,1019.64
2019-05-06T01:47:36.259Z,1019.66
2019-05-06T01:48:06.235Z,1019.66
2019-05-06T01:48:35.240Z,1019.64
2019-05-06T01:49:06.185Z,1019.65
2019-05-06T01:50:06.246Z,1019.65
2019-05-06T01:50:36.249Z,1019.66
2019-05-06T01:51:05.176Z,1019.66
2019-05-06T01:51:36.248Z,1019.66
2019-05-06T01:52:38.815Z,1019.67
2019-05-06T01:53:06.322Z,1019.67
2019-05-06T01:53:35.238Z,1019.67
2019-05-06T01:54:06.193Z,1019.69
2019-05-06T01:55:06.192Z,1019.68
2019-05-06T01:55:36.253Z,1019.67
2019-05-06T01:56:05.187Z,1019.68
2019-05-06T01:56:35.262Z,1019.70
2019-05-06T01:57:35.236Z,1019.72
2019-05-06T01:58:07.208Z,1019.72
2019-05-06T01:58:35.338Z,1019.71
2019-05-06T01:59:06.198Z,1019.72
2019-05-06T02:00:06.195Z,1019.72
2019-05-06T02:00:39.214Z,1019.71
2019-05-06T02:01:06.213Z,1019.72
2019-05-06T02:01:36.253Z,1019.72
2019-05-06T02:02:36.285Z,1019.74
2019-05-06T02:03:08.390Z,1019.76
2019-05-06T02:03:36.258Z,1019.75
2019-05-06T02:04:09.164Z,1019.76
2019-05-06T02:05:06.209Z,1019.76
2019-05-06T02:05:35.242Z,1019.75
2019-05-06T02:06:06.196Z,1019.78
2019-05-06T02:06:36.254Z,1019.79
2019-05-06T02:07:36.248Z,1019.76
2019-05-06T02:08:06.197Z,1019.80
2019-05-06T02:08:35.240Z,1019.82
2019-05-06T02:09:06.185Z,1019.79
2019-05-06T02:10:06.192Z,1019.81
2019-05-06T02:10:40.308Z,1019.83
2019-05-06T02:11:06.200Z,1019.80
2019-05-06T02:11:35.246Z,1019.81
2019-05-06T02:12:36.248Z,1019.83
2019-05-06T02:13:05.219Z,1019.83
2019-05-06T02:13:38.215Z,1019.82
2019-05-06T02:14:06.324Z,1019.83
2019-05-06T02:14:39.213Z,1019.82
2019-05-06T02:15:36.320Z,1019.84
2019-05-06T02:16:05.192Z,1019.85
2019-05-06T02:16:36.264Z,1019.85
2019-05-06T02:17:36.250Z,1019.87
2019-05-06T02:18:06.202Z,1019.86
2019-05-06T02:18:35.250Z,1019.92
2019-05-06T02:19:06.193Z,1019.88
2019-05-06T02:19:36.281Z,1019.89
2019-05-06T02:20:06.200Z,1019.86
2019-05-06T02:20:36.256Z,1019.91
2019-05-06T02:21:07.220Z,1019.85
2019-05-06T02:21:35.254Z,1019.90
2019-05-06T02:22:06.193Z,1019.91
2019-05-06T02:23:06.199Z,1019.89
2019-05-06T02:23:35.323Z,1019.89
2019-05-06T02:24:08.208Z,1019.92
2019-05-06T02:24:35.234Z,1019.91
2019-05-06T02:25:09.127Z,1019.94
2019-05-06T02:26:06.200Z,1019.91
2019-05-06T02:26:36.257Z,1019.94
2019-05-06T02:27:06.198Z,1019.95
2019-05-06T02:28:06.205Z,1019.93
2019-05-06T02:28:36.261Z,1019.94
2019-05-06T02:29:06.220Z,1019.95
2019-05-06T02:29:36.270Z,1019.95
2019-05-06T02:30:07.217Z,1019.94
2019-05-06T02:30:37.277Z,1019.93
2019-05-06T02:31:07.215Z,1019.91
2019-05-06T02:31:37.287Z,1019.92
2019-05-06T02:32:20.669Z,1019.91
2019-05-06T02:32:37.277Z,1019.94
2019-05-06T02:33:37.277Z,1019.92
2019-05-06T02:34:07.396Z,1019.92
2019-05-06T02:34:38.509Z,1019.91
2019-05-06T02:35:07.218Z,1019.90
2019-05-06T02:35:39.438Z,1019.90
2019-05-06T02:36:07.227Z,1019.90
2019-05-06T02:37:07.317Z,1019.93
2019-05-06T02:37:37.278Z,1019.94
2019-05-06T02:38:47.785Z,1019.92
2019-05-06T02:39:05.182Z,1019.93
2019-05-06T02:39:36.258Z,1019.93
2019-05-06T02:40:35.246Z,1019.92
2019-05-06T02:41:05.198Z,1019.94
2019-05-06T02:41:35.251Z,1019.96
2019-05-06T02:42:06.201Z,1019.96
2019-05-06T02:42:35.252Z,1019.96
2019-05-06T02:43:05.199Z,1019.98
2019-05-06T02:43:36.255Z,1019.96
2019-05-06T02:44:05.217Z,1019.98
2019-05-06T02:44:35.267Z,1019.99
2019-05-06T02:45:08.366Z,1019.98
2019-05-06T02:46:09.238Z,1019.96
2019-05-06T02:46:35.247Z,1019.96
2019-05-06T02:47:05.191Z,1019.95
2019-05-06T02:47:36.266Z,1019.95
2019-05-06T02:48:35.255Z,1019.95
2019-05-06T02:49:06.202Z,1019.96
2019-05-06T02:49:35.294Z,1019.95
2019-05-06T02:50:06.199Z,1019.99
2019-05-06T02:51:06.206Z,1019.99
2019-05-06T02:51:35.260Z,1020.00
2019-05-06T02:52:05.192Z,1020.00
2019-05-06T02:52:35.286Z,1019.98
2019-05-06T02:53:35.246Z,1019.97
2019-05-06T02:54:05.185Z,1019.97
2019-05-06T02:54:36.296Z,1019.98
2019-05-06T02:55:07.210Z,1020.02
2019-05-06T02:55:38.360Z,1020.00
2019-05-06T02:56:35.267Z,1020.01
2019-05-06T02:57:06.202Z,1020.02
2019-05-06T02:57:35.377Z,1020.04
2019-05-06T02:58:35.263Z,1020.04
2019-05-06T02:59:06.379Z,1020.04
2019-05-06T02:59:35.253Z,1020.04
2019-05-06T03:00:07.393Z,1020.04
2019-05-06T03:01:06.218Z,1020.03
2019-05-06T03:01:36.265Z,1020.03
2019-05-06T03:02:05.196Z,1020.06
2019-05-06T03:02:44.511Z,1020.04
2019-05-06T03:03:36.278Z,1020.02
2019-05-06T03:04:06.218Z,1020.03
2019-05-06T03:04:35.252Z,1020.03
2019-05-06T03:05:06.217Z,1020.05
2019-05-06T03:06:08.284Z,1020.05
2019-05-06T03:06:35.253Z,1020.04
2019-05-06T03:07:05.207Z,1020.09
2019-05-06T03:07:38.412Z,1020.07
2019-05-06T03:08:35.255Z,1020.07
2019-05-06T03:09:05.220Z,1020.09
2019-05-06T03:09:36.263Z,1020.09
2019-05-06T03:10:06.228Z,1020.09
2019-05-06T03:11:06.203Z,1020.10
2019-05-06T03:11:35.248Z,1020.09
2019-05-06T03:12:06.223Z,1020.11
2019-05-06T03:12:35.249Z,1020.13
2019-05-06T03:13:36.276Z,1020.12
2019-05-06T03:14:05.197Z,1020.13
2019-05-06T03:14:36.266Z,1020.14
2019-05-06T03:15:05.191Z,1020.14
2019-05-06T03:16:07.231Z,1020.14
2019-05-06T03:16:38.205Z,1020.16
2019-05-06T03:17:06.210Z,1020.13
2019-05-06T03:17:35.306Z,1020.17
2019-05-06T03:18:35.415Z,1020.14
2019-05-06T03:19:06.485Z,1020.16
2019-05-06T03:19:36.269Z,1020.16
2019-05-06T03:20:06.228Z,1020.13
2019-05-06T03:20:37.283Z,1020.14
2019-05-06T03:21:37.018Z,1020.13
2019-05-06T03:22:05.191Z,1020.14
2019-05-06T03:22:36.268Z,1020.14
2019-05-06T03:23:06.221Z,1020.13
2019-05-06T03:23:37.284Z,1020.11
2019-05-06T03:24:08.269Z,1020.13
2019-05-06T03:24:35.286Z,1020.15
2019-05-06T03:25:08.241Z,1020.13
2019-05-06T03:25:35.259Z,1020.12
2019-05-06T03:26:07.269Z,1020.15
2019-05-06T03:26:35.257Z,1020.13
2019-05-06T03:27:08.203Z,1020.12
2019-05-06T03:27:35.271Z,1020.15
2019-05-06T03:28:09.197Z,1020.15
2019-05-06T03:29:05.211Z,1020.13
2019-05-06T03:29:35.262Z,1020.14
2019-05-06T03:30:06.326Z,1020.14
2019-05-06T03:30:37.281Z,1020.13
2019-05-06T03:31:08.536Z,1020.14
2019-05-06T03:31:37.285Z,1020.14
2019-05-06T03:32:08.287Z,1020.15
2019-05-06T03:33:00.023Z,1020.14
2019-05-06T03:33:58.232Z,1020.16
2019-05-06T03:34:30.468Z,1020.16
2019-05-06T03:34:56.880Z,1020.17
2019-05-06T03:35:26.977Z,1020.16
2019-05-06T03:36:17.848Z,1020.18
2019-05-06T03:36:46.399Z,1020.18
2019-05-06T03:37:16.164Z,1020.18
2019-05-06T03:37:38.412Z,1020.19
2019-05-06T03:39:05.206Z,1020.19
2019-05-06T03:39:35.266Z,1020.19
2019-05-06T03:40:06.350Z,1020.20
2019-05-06T03:40:42.689Z,1020.19
2019-05-06T03:41:35.272Z,1020.21
2019-05-06T03:42:06.205Z,1020.21
2019-05-06T03:42:35.300Z,1020.19
2019-05-06T03:43:05.199Z,1020.19
2019-05-06T03:44:05.199Z,1020.20
2019-05-06T03:44:35.301Z,1020.19
2019-05-06T03:45:06.212Z,1020.18
2019-05-06T03:45:35.260Z,1020.20
2019-05-06T03:46:35.254Z,1020.20
2019-05-06T03:47:07.227Z,1020.19
2019-05-06T03:47:36.277Z,1020.20
2019-05-06T03:48:08.415Z,1020.21
2019-05-06T03:48:35.262Z,1020.20
2019-05-06T03:49:05.225Z,1020.19
2019-05-06T03:49:35.269Z,1020.22
2019-05-06T03:50:06.216Z,1020.17
2019-05-06T03:50:35.266Z,1020.20
2019-05-06T03:51:06.223Z,1020.22
2019-05-06T03:51:36.274Z,1020.19
2019-05-06T03:52:05.226Z,1020.22
2019-05-06T03:52:36.268Z,1020.19
2019-05-06T03:53:05.214Z,1020.22
2019-05-06T03:53:35.286Z,1020.19
2019-05-06T03:54:05.200Z,1020.21
2019-05-06T03:54:36.277Z,1020.21
2019-05-06T03:55:06.214Z,1020.23
2019-05-06T03:55:36.276Z,1020.24
2019-05-06T03:56:05.212Z,1020.23
2019-05-06T03:57:05.292Z,1020.24
2019-05-06T03:57:37.285Z,1020.25
2019-05-06T03:58:06.213Z,1020.27
2019-05-06T03:58:38.435Z,1020.25
2019-05-06T03:59:35.262Z,1020.29
2019-05-06T04:00:06.239Z,1020.30
2019-05-06T04:00:35.285Z,1020.30
2019-05-06T04:01:05.305Z,1020.30
2019-05-06T04:02:07.249Z,1020.31
2019-05-06T04:02:39.368Z,1020.28
2019-05-06T04:03:05.205Z,1020.31
2019-05-06T04:03:47.425Z,1020.31
2019-05-06T04:04:35.259Z,1020.29
2019-05-06T04:05:06.223Z,1020.32
2019-05-06T04:05:35.273Z,1020.34
2019-05-06T04:06:06.232Z,1020.32
2019-05-06T04:07:05.220Z,1020.33
2019-05-06T04:07:36.290Z,1020.33
2019-05-06T04:08:06.227Z,1020.34
2019-05-06T04:08:36.280Z,1020.34
2019-05-06T04:09:08.223Z,1020.32
2019-05-06T04:09:37.309Z,1020.37
2019-05-06T04:10:09.151Z,1020.33
2019-05-06T04:10:37.292Z,1020.36
2019-05-06T04:11:37.302Z,1020.36
2019-05-06T04:12:35.282Z,1020.38
2019-05-06T04:13:06.219Z,1020.40
2019-05-06T04:13:35.283Z,1020.41
2019-05-06T04:14:36.280Z,1020.40
2019-05-06T04:15:06.222Z,1020.41
2019-05-06T04:15:36.297Z,1020.42
2019-05-06T04:16:06.254Z,1020.41
2019-05-06T04:17:05.208Z,1020.43
2019-05-06T04:17:35.307Z,1020.43
2019-05-06T04:18:06.220Z,1020.43
2019-05-06T04:18:35.264Z,1020.43
2019-05-06T04:19:38.415Z,1020.45
2019-05-06T04:20:06.226Z,1020.45
2019-05-06T04:20:39.164Z,1020.44
2019-05-06T04:21:10.271Z,1020.45
2019-05-06T04:22:05.413Z,1020.47
2019-05-06T04:22:35.496Z,1020.47
2019-05-06T04:23:07.241Z,1020.47
2019-05-06T04:23:35.268Z,1020.47
2019-05-06T04:24:35.286Z,1020.51
2019-05-06T04:25:06.236Z,1020.49
2019-05-06T04:25:35.278Z,1020.52
2019-05-06T04:26:05.222Z,1020.51
2019-05-06T04:26:35.265Z,1020.52
2019-05-06T04:27:35.264Z,1020.51
2019-05-06T04:28:05.232Z,1020.52
2019-05-06T04:28:36.282Z,1020.54
2019-05-06T04:29:06.225Z,1020.56
2019-05-06T04:29:37.292Z,1020.55
2019-05-06T04:30:08.201Z,1020.54
2019-05-06T04:31:05.230Z,1020.57
2019-05-06T04:31:35.267Z,1020.54
2019-05-06T04:32:36.342Z,1020.55
2019-05-06T04:33:05.243Z,1020.59
2019-05-06T04:33:35.269Z,1020.55
2019-05-06T04:34:15.423Z,1020.56
2019-05-06T04:35:06.224Z,1020.57
2019-05-06T04:35:35.273Z,1020.56
2019-05-06T04:36:05.206Z,1020.58
2019-05-06T04:36:35.310Z,1020.58
2019-05-06T04:37:36.279Z,1020.59
2019-05-06T04:38:05.220Z,1020.56
2019-05-06T04:38:36.293Z,1020.57
2019-05-06T04:39:06.238Z,1020.59
2019-05-06T04:40:06.229Z,1020.58
2019-05-06T04:40:38.215Z,1020.62
2019-05-06T04:41:05.214Z,1020.59
2019-05-06T04:41:39.153Z,1020.62
2019-05-06T04:42:36.284Z,1020.61
2019-05-06T04:43:05.206Z,1020.62
2019-05-06T04:43:35.481Z,1020.63
2019-05-06T04:44:05.212Z,1020.66
2019-05-06T04:45:06.227Z,1020.63
2019-05-06T04:45:35.262Z,1020.64
2019-05-06T04:46:05.213Z,1020.65
2019-05-06T04:46:36.281Z,1020.64
2019-05-06T04:47:07.249Z,1020.66
2019-05-06T04:48:05.231Z,1020.65
2019-05-06T04:48:35.303Z,1020.67
2019-05-06T04:49:10.417Z,1020.68
2019-05-06T04:50:07.244Z,1020.66
2019-05-06T04:50:35.265Z,1020.69
2019-05-06T04:51:08.274Z,1020.68
2019-05-06T04:51:37.307Z,1020.70
2019-05-06T04:52:36.280Z,1020.71
2019-05-06T04:53:07.268Z,1020.73
2019-05-06T04:53:36.309Z,1020.78
2019-05-06T04:54:06.238Z,1020.77
2019-05-06T04:55:06.244Z,1020.80
2019-05-06T04:55:35.272Z,1020.79
2019-05-06T04:56:06.226Z,1020.80
2019-05-06T04:56:35.278Z,1020.81
2019-05-06T04:57:07.254Z,1020.78
2019-05-06T04:58:06.236Z,1020.81
2019-05-06T04:58:35.266Z,1020.81
2019-05-06T04:59:07.247Z,1020.82
2019-05-06T05:00:06.222Z,1020.85
2019-05-06T05:00:35.318Z,1020.87
2019-05-06T05:01:06.221Z,1020.87
2019-05-06T05:01:38.309Z,1020.86
2019-05-06T05:02:35.276Z,1020.87
2019-05-06T05:03:05.233Z,1020.91
2019-05-06T05:03:35.319Z,1020.88
2019-05-06T05:04:22.691Z,1020.88
2019-05-06T05:04:37.304Z,1020.89
2019-05-06T05:05:35.275Z,1020.88
2019-05-06T05:06:07.254Z,1020.89
2019-05-06T05:06:35.291Z,1020.90
2019-05-06T05:07:35.284Z,1020.92
2019-05-06T05:08:05.225Z,1020.92
2019-05-06T05:08:35.277Z,1020.94
2019-05-06T05:09:05.252Z,1020.94
2019-05-06T05:10:05.219Z,1020.94
2019-05-06T05:10:35.268Z,1020.97
2019-05-06T05:11:05.222Z,1020.96
2019-05-06T05:11:35.299Z,1020.95
2019-05-06T05:12:08.184Z,1020.95
2019-05-06T05:13:05.217Z,1020.95
2019-05-06T05:13:35.274Z,1020.94
2019-05-06T05:14:05.224Z,1020.94
2019-05-06T05:15:05.215Z,1020.98
2019-05-06T05:15:35.270Z,1020.99
2019-05-06T05:16:05.214Z,1020.98
2019-05-06T05:16:35.264Z,1021.00
2019-05-06T05:17:05.214Z,1020.98
2019-05-06T05:17:35.275Z,1021.02
2019-05-06T05:18:05.254Z,1021.00
2019-05-06T05:18:35.284Z,1021.03
2019-05-06T05:19:05.218Z,1021.01
2019-05-06T05:19:35.289Z,1021.01
2019-05-06T05:20:05.258Z,1021.03
2019-05-06T05:20:45.614Z,1021.03
2019-05-06T05:21:05.216Z,1021.03
2019-05-06T05:21:35.274Z,1021.03
2019-05-06T05:22:05.270Z,1021.07
2019-05-06T05:22:38.182Z,1021.08
2019-05-06T05:23:05.218Z,1021.10
2019-05-06T05:23:35.285Z,1021.09
2019-05-06T05:24:05.213Z,1021.06
2019-05-06T05:24:35.403Z,1021.11
2019-05-06T05:25:05.220Z,1021.06
2019-05-06T05:25:35.405Z,1021.08
2019-05-06T05:26:05.312Z,1021.07
2019-05-06T05:26:35.302Z,1021.09
2019-05-06T05:27:05.214Z,1021.08
2019-05-06T05:27:35.285Z,1021.09
2019-05-06T05:28:05.210Z,1021.10
2019-05-06T05:28:35.313Z,1021.09
2019-05-06T05:29:05.220Z,1021.10
2019-05-06T05:29:35.280Z,1021.09
2019-05-06T05:30:05.223Z,1021.11
2019-05-06T05:30:35.342Z,1021.13
2019-05-06T05:31:05.232Z,1021.12
2019-05-06T05:31:35.277Z,1021.13
2019-05-06T05:32:05.219Z,1021.13
2019-05-06T05:32:35.296Z,1021.14
2019-05-06T05:33:08.221Z,1021.13
2019-05-06T05:33:35.273Z,1021.14
2019-05-06T05:34:05.221Z,1021.16
2019-05-06T05:34:40.879Z,1021.16
2019-05-06T05:35:35.281Z,1021.15
2019-05-06T05:36:05.226Z,1021.15
2019-05-06T05:36:35.275Z,1021.16
2019-05-06T05:37:05.221Z,1021.15
2019-05-06T05:38:05.219Z,1021.17
2019-05-06T05:38:35.271Z,1021.14
2019-05-06T05:39:05.219Z,1021.14
2019-05-06T05:39:35.280Z,1021.16
2019-05-06T05:40:35.272Z,1021.14
2019-05-06T05:41:05.254Z,1021.15
2019-05-06T05:41:35.291Z,1021.16
2019-05-06T05:42:05.241Z,1021.16
2019-05-06T05:43:05.216Z,1021.20
2019-05-06T05:43:44.425Z,1021.19
2019-05-06T05:44:05.219Z,1021.21
2019-05-06T05:44:35.282Z,1021.20
2019-05-06T05:45:35.290Z,1021.21
2019-05-06T05:46:05.218Z,1021.20
2019-05-06T05:46:35.272Z,1021.20
2019-05-06T05:47:05.353Z,1021.22
2019-05-06T05:48:05.228Z,1021.19
2019-05-06T05:48:35.275Z,1021.21
2019-05-06T05:49:05.264Z,1021.21
2019-05-06T05:49:35.282Z,1021.20
2019-05-06T05:50:35.294Z,1021.21
2019-05-06T05:51:05.230Z,1021.21
2019-05-06T05:51:35.383Z,1021.22
2019-05-06T05:52:05.221Z,1021.21
2019-05-06T05:53:05.223Z,1021.21
2019-05-06T05:53:35.345Z,1021.18
2019-05-06T05:54:08.363Z,1021.23
2019-05-06T05:54:35.283Z,1021.20
2019-05-06T05:55:35.379Z,1021.21
2019-05-06T05:56:05.235Z,1021.20
2019-05-06T05:56:35.279Z,1021.23
2019-05-06T05:57:05.223Z,1021.24
2019-05-06T05:58:05.221Z,1021.22
2019-05-06T05:58:35.283Z,1021.21
2019-05-06T05:59:05.227Z,1021.21
2019-05-06T05:59:35.324Z,1021.22
2019-05-06T06:00:35.284Z,1021.23
2019-05-06T06:01:06.235Z,1021.23
2019-05-06T06:01:35.282Z,1021.25
2019-05-06T06:02:06.230Z,1021.24
2019-05-06T06:03:08.265Z,1021.28
2019-05-06T06:03:35.306Z,1021.30
2019-05-06T06:04:05.221Z,1021.30
2019-05-06T06:04:53.604Z,1021.30
2019-05-06T06:05:35.277Z,1021.29
2019-05-06T06:06:05.222Z,1021.30
2019-05-06T06:06:35.290Z,1021.32
2019-05-06T06:07:05.223Z,1021.30
2019-05-06T06:08:05.438Z,1021.32
2019-05-06T06:08:37.589Z,1021.34
2019-05-06T06:09:05.237Z,1021.33
2019-05-06T06:09:35.287Z,1021.33
2019-05-06T06:10:35.284Z,1021.32
2019-05-06T06:11:06.238Z,1021.34
2019-05-06T06:11:35.285Z,1021.34
2019-05-06T06:12:05.232Z,1021.35
2019-05-06T06:13:05.227Z,1021.34
2019-05-06T06:13:35.295Z,1021.36
2019-05-06T06:14:05.287Z,1021.35
2019-05-06T06:14:35.287Z,1021.34
2019-05-06T06:15:08.367Z,1021.37
2019-05-06T06:16:05.231Z,1021.37
2019-05-06T06:16:35.289Z,1021.39
2019-05-06T06:17:05.221Z,1021.36
2019-05-06T06:17:35.291Z,1021.39
2019-05-06T06:18:35.345Z,1021.36
2019-05-06T06:19:05.227Z,1021.36
2019-05-06T06:19:35.289Z,1021.38
2019-05-06T06:20:05.229Z,1021.37
2019-05-06T06:21:18.414Z,1021.37
2019-05-06T06:21:35.288Z,1021.36
2019-05-06T06:22:05.236Z,1021.35
2019-05-06T06:22:35.300Z,1021.38
2019-05-06T06:23:35.295Z,1021.39
2019-05-06T06:24:05.235Z,1021.38
2019-05-06T06:24:35.301Z,1021.38
2019-05-06T06:25:06.242Z,1021.38
2019-05-06T06:25:38.335Z,1021.39
2019-05-06T06:26:35.326Z,1021.37
2019-05-06T06:27:05.235Z,1021.37
2019-05-06T06:27:35.285Z,1021.39
2019-05-06T06:28:35.295Z,1021.39
2019-05-06T06:29:05.229Z,1021.38
2019-05-06T06:29:35.405Z,1021.41
2019-05-06T06:30:05.371Z,1021.39
2019-05-06T06:30:35.439Z,1021.39
2019-05-06T06:31:35.297Z,1021.38
2019-05-06T06:32:05.221Z,1021.37
2019-05-06T06:32:35.288Z,1021.39
2019-05-06T06:33:05.221Z,1021.42
2019-05-06T06:34:05.222Z,1021.35
2019-05-06T06:34:35.285Z,1021.37
2019-05-06T06:35:11.963Z,1021.38
2019-05-06T06:35:35.299Z,1021.36
2019-05-06T06:36:08.239Z,1021.36
2019-05-06T06:37:05.230Z,1021.34
2019-05-06T06:37:35.284Z,1021.33
2019-05-06T06:38:05.244Z,1021.35
2019-05-06T06:39:05.291Z,1021.34
2019-05-06T06:39:35.293Z,1021.32
2019-05-06T06:40:05.234Z,1021.34
2019-05-06T06:40:35.292Z,1021.34
2019-05-06T06:41:35.291Z,1021.33
2019-05-06T06:42:05.284Z,1021.35
2019-05-06T06:42:35.289Z,1021.34
2019-05-06T06:43:05.237Z,1021.34
2019-05-06T06:44:05.227Z,1021.35
2019-05-06T06:44:35.302Z,1021.34
2019-05-06T06:45:05.227Z,1021.35
2019-05-06T06:45:35.369Z,1021.36
2019-05-06T06:46:38.500Z,1021.38
2019-05-06T06:47:05.227Z,1021.35
2019-05-06T06:47:35.375Z,1021.37
2019-05-06T06:48:05.229Z,1021.36
2019-05-06T06:49:05.228Z,1021.38
2019-05-06T06:49:35.367Z,1021.39
2019-05-06T06:50:05.238Z,1021.37
2019-05-06T06:50:35.284Z,1021.39
2019-05-06T06:51:35.460Z,1021.40
2019-05-06T06:52:12.180Z,1021.39
2019-05-06T06:52:35.295Z,1021.38
2019-05-06T06:53:05.238Z,1021.38
2019-05-06T06:54:05.230Z,1021.39
2019-05-06T06:54:35.285Z,1021.40
2019-05-06T06:55:05.234Z,1021.40
2019-05-06T06:55:35.299Z,1021.39
2019-05-06T06:56:05.237Z,1021.40
2019-05-06T06:57:14.390Z,1021.37
2019-05-06T06:57:36.317Z,1021.37
2019-05-06T06:58:05.245Z,1021.41
2019-05-06T06:58:35.312Z,1021.39
2019-05-06T06:59:35.293Z,1021.41
2019-05-06T07:00:06.348Z,1021.40
2019-05-06T07:00:35.295Z,1021.38
2019-05-06T07:01:05.241Z,1021.41
2019-05-06T07:01:35.296Z,1021.38
2019-05-06T07:02:35.298Z,1021.39
2019-05-06T07:03:05.232Z,1021.37
2019-05-06T07:03:35.296Z,1021.40
2019-05-06T07:04:12.802Z,1021.40
2019-05-06T07:05:05.243Z,1021.37
2019-05-06T07:05:35.302Z,1021.37
2019-05-06T07:06:05.282Z,1021.40
2019-05-06T07:06:35.289Z,1021.37
2019-05-06T09:19:46.938Z,1021.21
2019-05-06T09:19:53.394Z,1021.18
2019-05-06T09:20:43.114Z,1021.21
2019-05-06T09:21:13.065Z,1021.22
2019-05-06T09:21:47.523Z,1021.20
2019-05-06T09:22:12.896Z,1021.20
2019-05-06T09:23:13.047Z,1021.19
2019-05-06T09:23:43.110Z,1021.20
2019-05-06T09:24:12.759Z,1021.17
2019-05-06T09:24:44.105Z,1021.21
2019-05-06T09:25:44.101Z,1021.18
2019-05-06T09:26:12.905Z,1021.19
2019-05-06T09:26:43.063Z,1021.19
2019-05-06T09:27:14.039Z,1021.21
2019-05-06T09:28:13.124Z,1021.19
2019-05-06T09:28:44.125Z,1021.21
2019-05-06T09:29:14.318Z,1021.19
2019-05-06T09:29:44.167Z,1021.16
2019-05-06T09:30:43.141Z,1021.16
2019-05-06T09:31:13.044Z,1021.14
2019-05-06T09:31:44.107Z,1021.16
2019-05-06T09:32:13.759Z,1021.16